createdAt,value
2022-10-24T00:00:44.914Z,98966.70
2022-10-24T00:03:51.466Z,98975.11
2022-10-24T00:06:56.996Z,98979.63
2022-10-24T00:10:02.546Z,98991.50
2022-10-24T00:13:08.301Z,98997.17
2022-10-24T00:16:14.709Z,98989.77
2022-10-24T00:19:20.423Z,98989.39
2022-10-24T00:22:26.077Z,98983.48
2022-10-24T00:25:31.522Z,98981.27
2022-10-24T00:28:38.436Z,98986.54
2022-10-24T00:31:44.205Z,98982.56
2022-10-24T00:34:49.706Z,98978.83
2022-10-24T00:37:55.461Z,98974.59
2022-10-24T00:41:01.009Z,98967.66
2022-10-24T00:44:19.974Z,98958.23
2022-10-24T00:47:28.235Z,98957.48
2022-10-24T00:50:34.249Z,98959.19
2022-10-24T00:53:45.451Z,98953.10
2022-10-24T00:56:58.044Z,98946.20
2022-10-24T01:00:08.297Z,98950.04
2022-10-24T01:03:14.861Z,98953.38
2022-10-24T01:06:54.321Z,98955.33
2022-10-24T01:10:22.488Z,98948.16
2022-10-24T01:13:36.703Z,98946.31
2022-10-24T01:16:48.864Z,98941.50
2022-10-24T01:20:20.296Z,98944.80
2022-10-24T01:24:01.095Z,98945.05
2022-10-24T01:27:32.001Z,98944.73
2022-10-24T01:30:42.708Z,98949.93
2022-10-24T01:33:54.937Z,98948.39
2022-10-24T01:37:05.887Z,98949.52
2022-10-24T01:40:16.145Z,98945.52
2022-10-24T01:43:26.977Z,98942.67
2022-10-24T01:46:36.974Z,98937.39
2022-10-24T01:49:46.220Z,98926.76
2022-10-24T01:52:55.547Z,98920.36
2022-10-24T01:56:01.937Z,98911.00
2022-10-24T01:59:07.518Z,98901.45
2022-10-24T02:02:16.906Z,98905.98
2022-10-24T02:05:27.152Z,98908.90
2022-10-24T02:08:38.656Z,98906.15
2022-10-24T02:11:46.807Z,98905.03
2022-10-24T02:14:56.819Z,98897.22
2022-10-24T02:18:03.113Z,98905.50
2022-10-24T02:21:13.806Z,98904.46
2022-10-24T02:24:24.545Z,98900.80
2022-10-24T02:27:34.549Z,98901.13
2022-10-24T02:30:44.910Z,98905.79
2022-10-24T02:33:52.848Z,98906.23
2022-10-24T02:37:00.290Z,98906.52
2022-10-24T02:40:10.628Z,98910.38
2022-10-24T02:43:18.612Z,98910.97
2022-10-24T02:46:25.439Z,98906.48
2022-10-24T02:49:31.210Z,98902.10
2022-10-24T02:52:38.381Z,98899.74
2022-10-24T02:55:44.086Z,98904.96
2022-10-24T02:58:49.533Z,98904.60
2022-10-24T03:01:55.270Z,98902.95
2022-10-24T03:05:01.410Z,98902.91
2022-10-24T03:08:07.969Z,98906.06
2022-10-24T03:11:13.676Z,98901.81
2022-10-24T03:14:19.424Z,98899.85
2022-10-24T03:17:24.976Z,98895.59
2022-10-24T03:20:30.590Z,98897.27
2022-10-24T03:23:36.077Z,98893.36
2022-10-24T03:26:41.496Z,98892.11
2022-10-24T03:29:46.972Z,98892.86
2022-10-24T03:32:52.462Z,98888.67
2022-10-24T03:35:58.172Z,98882.85
2022-10-24T03:39:04.181Z,98879.23
2022-10-24T03:42:09.749Z,98879.07
2022-10-24T03:45:15.948Z,98877.48
2022-10-24T03:48:19.843Z,98883.00
2022-10-24T03:51:25.308Z,98888.27
2022-10-24T03:54:31.112Z,98884.34
2022-10-24T03:57:36.610Z,98869.27
2022-10-24T04:00:43.370Z,98867.52
2022-10-24T04:03:48.940Z,98867.41
2022-10-24T04:06:54.392Z,98867.16
2022-10-24T04:09:59.936Z,98857.60
2022-10-24T04:13:05.352Z,98847.03
2022-10-24T04:16:11.792Z,98849.65
2022-10-24T04:19:18.545Z,98844.89
2022-10-24T04:22:24.080Z,98851.02
2022-10-24T04:25:30.183Z,98862.16
2022-10-24T04:28:35.998Z,98861.98
2022-10-24T04:31:41.750Z,98862.56
2022-10-24T04:34:47.221Z,98861.41
2022-10-24T04:37:53.097Z,98861.42
2022-10-24T04:40:58.609Z,98851.77
2022-10-24T04:44:04.152Z,98849.16
2022-10-24T04:47:09.651Z,98853.60
2022-10-24T04:50:15.246Z,98856.30
2022-10-24T04:53:20.850Z,98854.81
2022-10-24T04:56:27.078Z,98850.86
2022-10-24T04:59:30.972Z,98860.48
2022-10-24T05:02:36.602Z,98870.70
2022-10-24T05:05:42.344Z,98869.04
2022-10-24T05:08:47.834Z,98879.27
2022-10-24T05:11:55.019Z,98882.52
2022-10-24T05:15:00.568Z,98879.27
2022-10-24T05:18:06.906Z,98872.56
2022-10-24T05:21:10.847Z,98862.36
2022-10-24T05:24:16.603Z,98866.86
2022-10-24T05:27:24.872Z,98866.75
2022-10-24T05:30:30.467Z,98866.17
2022-10-24T05:33:35.922Z,98861.05
2022-10-24T05:36:41.412Z,98859.91
2022-10-24T05:39:47.013Z,98858.34
2022-10-24T05:42:53.175Z,98852.61
2022-10-24T05:45:58.727Z,98847.61
2022-10-24T05:49:04.275Z,98854.10
2022-10-24T05:52:09.926Z,98860.42
2022-10-24T05:55:17.876Z,98857.61
2022-10-24T05:58:25.019Z,98858.85
2022-10-24T06:01:30.601Z,98861.81
2022-10-24T06:04:36.125Z,98855.80
2022-10-24T06:07:43.286Z,98858.23
2022-10-24T06:10:50.781Z,98862.23
2022-10-24T06:13:56.258Z,98863.15
2022-10-24T06:17:01.774Z,98862.58
2022-10-24T06:20:08.808Z,98859.52
2022-10-24T06:23:14.331Z,98860.76
2022-10-24T06:26:23.118Z,98870.53
2022-10-24T06:29:29.831Z,98871.34
2022-10-24T06:32:35.890Z,98876.81
2022-10-24T06:35:41.954Z,98880.42
2022-10-24T06:38:47.511Z,98884.90
2022-10-24T06:41:53.053Z,98886.63
2022-10-24T06:48:10.740Z,98889.80
2022-10-24T06:51:19.123Z,98892.52
2022-10-24T06:54:26.513Z,98891.86
2022-10-24T06:57:35.127Z,98887.65
2022-10-24T07:00:41.711Z,98887.86
2022-10-24T07:03:47.976Z,98884.62
2022-10-24T07:06:51.990Z,98892.89
2022-10-24T07:09:58.725Z,98895.94
2022-10-24T07:13:04.229Z,98902.11
2022-10-24T07:16:11.034Z,98909.02
2022-10-24T07:19:16.451Z,98912.60
2022-10-24T07:22:22.028Z,98911.42
2022-10-24T07:25:27.437Z,98911.70
2022-10-24T07:28:33.236Z,98917.49
2022-10-24T07:31:38.968Z,98915.29
2022-10-24T07:34:44.699Z,98914.16
2022-10-24T07:37:50.251Z,98914.62
2022-10-24T07:40:55.798Z,98919.63
2022-10-24T07:44:02.612Z,98915.76
2022-10-24T07:47:10.101Z,98917.05
2022-10-24T07:50:17.294Z,98917.98
2022-10-24T07:53:22.706Z,98911.98
2022-10-24T07:56:28.306Z,98914.30
2022-10-24T07:59:41.764Z,98915.55
2022-10-24T08:05:57.194Z,98904.12
2022-10-24T08:09:03.052Z,98899.41
2022-10-24T08:12:09.065Z,98895.62
2022-10-24T08:15:14.864Z,98882.92
2022-10-24T08:18:20.413Z,98877.00
2022-10-24T08:21:26.929Z,98873.16
2022-10-24T08:24:32.433Z,98876.61
2022-10-24T08:27:38.349Z,98871.75
2022-10-24T08:30:43.882Z,98869.90
2022-10-24T08:33:52.359Z,98867.31
2022-10-24T08:36:57.806Z,98859.06
2022-10-24T08:40:05.403Z,98851.86
2022-10-24T08:43:13.019Z,98848.66
2022-10-24T08:46:36.369Z,98849.26
2022-10-24T08:49:50.259Z,98840.67
2022-10-24T08:53:01.816Z,98838.44
2022-10-24T08:56:11.373Z,98844.92
2022-10-24T08:59:16.896Z,98849.77
2022-10-24T09:02:26.665Z,98855.92
2022-10-24T09:05:43.456Z,98857.28
2022-10-24T09:08:53.921Z,98855.70
2022-10-24T09:12:03.200Z,98855.61
2022-10-24T09:15:21.216Z,98851.86
2022-10-24T09:18:32.317Z,98844.51
2022-10-24T09:21:38.650Z,98842.54
2022-10-24T09:24:48.658Z,98832.88
2022-10-24T09:27:54.217Z,98831.35
2022-10-24T09:30:59.699Z,98832.08
2022-10-24T09:34:07.229Z,98826.14
2022-10-24T09:37:35.129Z,98819.59
2022-10-24T09:40:53.722Z,98816.12
2022-10-24T09:44:01.405Z,98808.58
2022-10-24T09:47:22.845Z,98805.04
2022-10-24T09:50:29.565Z,98802.83
2022-10-24T09:53:37.610Z,98804.15
2022-10-24T09:56:44.611Z,98803.21
2022-10-24T09:59:59.536Z,98802.80
2022-10-24T10:03:07.722Z,98801.65
2022-10-24T10:06:20.171Z,98804.31
2022-10-24T10:09:31.510Z,98803.45
2022-10-24T10:12:40.285Z,98801.69
2022-10-24T10:15:50.425Z,98796.89
2022-10-24T10:19:04.964Z,98805.07
2022-10-24T10:22:25.880Z,98817.68
2022-10-24T10:25:33.466Z,98828.91
2022-10-24T10:28:48.338Z,98831.98
2022-10-24T10:31:59.256Z,98832.44
2022-10-24T10:35:14.382Z,98835.02
2022-10-24T10:38:37.745Z,98832.63
2022-10-24T10:41:49.575Z,98830.16
2022-10-24T10:45:09.980Z,98823.98
2022-10-24T10:48:33.083Z,98822.71
2022-10-24T10:51:45.631Z,98824.38
2022-10-24T10:55:09.110Z,98825.34
2022-10-24T10:58:27.048Z,98826.56
2022-10-24T11:01:46.502Z,98823.78
2022-10-24T11:04:59.548Z,98821.21
2022-10-24T11:08:18.546Z,98810.77
2022-10-24T11:11:29.236Z,98807.56
2022-10-24T11:14:38.060Z,98807.23
2022-10-24T11:17:47.514Z,98803.75
2022-10-24T11:20:58.481Z,98802.88
2022-10-24T11:24:11.112Z,98802.16
2022-10-24T11:27:26.621Z,98806.95
2022-10-24T11:30:43.621Z,98811.50
2022-10-24T11:33:56.699Z,98806.35
2022-10-24T11:37:07.492Z,98798.64
2022-10-24T11:40:16.265Z,98801.09
2022-10-24T11:43:27.136Z,98806.52
2022-10-24T11:46:37.700Z,98813.67
2022-10-24T11:49:48.984Z,98817.30
2022-10-24T11:52:56.888Z,98820.05
2022-10-24T11:56:08.327Z,98816.13
2022-10-24T11:59:21.608Z,98811.69
2022-10-24T12:03:00.943Z,98818.55
2022-10-24T12:06:32.771Z,98819.48
2022-10-24T12:10:07.990Z,98822.23
2022-10-24T12:13:29.190Z,98819.87
2022-10-24T12:16:48.029Z,98813.78
2022-10-24T12:19:54.909Z,98808.65
2022-10-24T12:23:02.536Z,98802.78
2022-10-24T12:26:18.593Z,98800.16
2022-10-24T12:29:28.090Z,98800.50
2022-10-24T12:32:42.423Z,98801.33
2022-10-24T12:35:52.962Z,98800.34
2022-10-24T12:39:09.541Z,98803.27
2022-10-24T12:42:39.871Z,98801.59
2022-10-24T12:45:45.480Z,98798.96
2022-10-24T12:49:20.600Z,98794.14
2022-10-24T12:53:07.277Z,98789.01
2022-10-24T12:56:22.534Z,98784.34
2022-10-24T12:59:31.453Z,98784.38
2022-10-24T13:02:53.762Z,98781.66
2022-10-24T13:06:07.774Z,98780.48
2022-10-24T13:09:26.378Z,98776.17
2022-10-24T13:12:53.113Z,98770.71
2022-10-24T13:16:04.321Z,98767.20
2022-10-24T13:19:18.761Z,98767.23
2022-10-24T13:22:34.810Z,98767.15
2022-10-24T13:25:41.926Z,98768.53
2022-10-24T13:28:47.653Z,98767.16
2022-10-24T13:31:55.014Z,98767.01
2022-10-24T13:35:02.851Z,98763.61
2022-10-24T13:38:10.842Z,98766.92
2022-10-24T13:41:24.833Z,98764.52
2022-10-24T13:44:35.468Z,98760.74
2022-10-24T13:47:46.365Z,98760.50
2022-10-24T13:51:02.131Z,98761.56
2022-10-24T13:54:15.062Z,98761.58
2022-10-24T13:57:33.892Z,98763.77
2022-10-24T14:00:41.927Z,98763.91
2022-10-24T14:03:48.599Z,98767.01
2022-10-24T14:06:54.378Z,98771.62
2022-10-24T14:10:04.719Z,98770.79
2022-10-24T14:13:17.654Z,98771.20
2022-10-24T14:16:29.173Z,98768.21
2022-10-24T14:19:38.380Z,98770.42
2022-10-24T14:22:44.724Z,98769.80
2022-10-24T14:25:58.268Z,98772.12
2022-10-24T14:29:03.961Z,98773.25
2022-10-24T14:32:15.366Z,98775.72
2022-10-24T14:35:20.958Z,98781.20
2022-10-24T14:38:27.548Z,98778.66
2022-10-24T14:41:35.773Z,98777.55
2022-10-24T14:44:44.105Z,98774.66
2022-10-24T14:47:54.944Z,98774.23
2022-10-24T14:51:09.403Z,98771.43
2022-10-24T14:54:21.292Z,98774.05
2022-10-24T14:57:27.905Z,98777.13
2022-10-24T15:00:41.115Z,98778.23
2022-10-24T15:03:55.977Z,98777.81
2022-10-24T15:07:16.371Z,98778.20
2022-10-24T15:10:33.990Z,98775.84
2022-10-24T15:13:48.138Z,98779.25
2022-10-24T15:17:21.459Z,98781.61
2022-10-24T15:20:30.164Z,98778.40
2022-10-24T15:23:37.799Z,98779.77
2022-10-24T15:26:45.596Z,98786.23
2022-10-24T15:29:51.012Z,98797.04
2022-10-24T15:32:59.514Z,98802.39
2022-10-24T15:36:06.235Z,98805.41
2022-10-24T15:39:16.941Z,98806.95
2022-10-24T15:42:23.710Z,98804.86
2022-10-24T15:45:29.817Z,98807.41
2022-10-24T15:48:35.367Z,98803.52
2022-10-24T15:51:46.022Z,98805.18
2022-10-24T15:54:55.376Z,98807.48
2022-10-24T15:58:01.245Z,98804.80
2022-10-24T16:01:07.069Z,98811.00
2022-10-24T16:04:11.615Z,98813.16
2022-10-24T16:07:17.169Z,98815.14
2022-10-24T16:10:24.501Z,98815.45
2022-10-24T16:13:30.643Z,98820.23
2022-10-24T16:16:36.073Z,98822.89
2022-10-24T16:19:41.616Z,98819.92
2022-10-24T16:22:47.070Z,98818.27
2022-10-24T16:25:52.815Z,98824.64
2022-10-24T16:28:58.204Z,98824.77
2022-10-24T16:32:03.710Z,98825.05
2022-10-24T16:35:12.481Z,98824.21
2022-10-24T16:38:18.360Z,98819.31
2022-10-24T16:41:25.790Z,98815.45
2022-10-24T16:44:31.847Z,98817.71
2022-10-24T16:47:36.008Z,98819.68
2022-10-24T16:50:46.417Z,98820.99
2022-10-24T16:53:52.694Z,98823.58
2022-10-24T16:56:58.356Z,98824.25
2022-10-24T17:00:06.165Z,98832.17
2022-10-24T17:03:11.800Z,98839.20
2022-10-24T17:06:17.350Z,98839.88
2022-10-24T17:09:23.017Z,98835.15
2022-10-24T17:12:28.556Z,98836.70
2022-10-24T17:15:34.052Z,98839.69
2022-10-24T17:18:40.042Z,98846.65
2022-10-24T17:21:47.999Z,98850.73
2022-10-24T17:24:53.719Z,98847.81
2022-10-24T17:27:59.767Z,98845.63
2022-10-24T17:31:05.885Z,98845.98
2022-10-24T17:34:10.108Z,98838.14
2022-10-24T17:37:23.541Z,98835.27
2022-10-24T17:40:40.421Z,98838.01
2022-10-24T17:43:47.056Z,98834.89
2022-10-24T17:46:56.027Z,98828.02
2022-10-24T17:50:04.022Z,98832.09
2022-10-24T17:53:11.976Z,98831.64
2022-10-24T17:56:19.570Z,98831.70
2022-10-24T17:59:27.569Z,98831.38
2022-10-24T18:02:34.412Z,98831.98
2022-10-24T18:05:39.898Z,98831.30
2022-10-24T18:08:45.613Z,98830.04
2022-10-24T18:11:51.060Z,98827.00
2022-10-24T18:14:57.532Z,98824.41
2022-10-24T18:18:03.008Z,98820.48
2022-10-24T18:21:13.694Z,98817.02
2022-10-24T18:24:19.161Z,98816.30
2022-10-24T18:27:25.089Z,98816.39
2022-10-24T18:30:30.983Z,98817.81
2022-10-24T18:33:36.563Z,98814.19
2022-10-24T18:36:42.060Z,98812.39
2022-10-24T18:39:48.344Z,98805.66
2022-10-24T18:42:58.843Z,98802.26
2022-10-24T18:46:05.539Z,98797.05
2022-10-24T18:49:12.241Z,98794.21
2022-10-24T18:52:25.528Z,98787.70
2022-10-24T18:55:33.157Z,98787.84
2022-10-24T18:58:39.124Z,98786.66
2022-10-24T19:01:52.016Z,98790.08
2022-10-24T19:05:13.632Z,98787.73
2022-10-24T19:08:22.110Z,98783.98
2022-10-24T19:11:28.111Z,98782.59
2022-10-24T19:14:34.195Z,98780.10
2022-10-24T19:17:38.188Z,98782.19
2022-10-24T19:20:43.962Z,98778.95
2022-10-24T19:23:50.670Z,98776.66
2022-10-24T19:26:56.165Z,98774.93
2022-10-24T19:30:01.572Z,98772.85
2022-10-24T19:33:06.964Z,98775.92
2022-10-24T19:36:19.012Z,98772.46
2022-10-24T19:39:25.981Z,98769.37
2022-10-24T19:42:34.700Z,98771.56
2022-10-24T19:45:49.903Z,98775.02
2022-10-24T19:49:00.612Z,98778.66
2022-10-24T19:52:06.308Z,98781.21
2022-10-24T19:55:12.074Z,98784.02
2022-10-24T19:58:20.156Z,98784.48
2022-10-24T20:01:27.509Z,98780.61
2022-10-24T20:04:33.479Z,98771.58
2022-10-24T20:07:38.876Z,98768.20
2022-10-24T20:10:51.502Z,98765.78
2022-10-24T20:13:57.240Z,98767.11
2022-10-24T20:17:02.744Z,98765.83
2022-10-24T20:20:11.329Z,98763.67
2022-10-24T20:23:17.120Z,98767.20
2022-10-24T20:26:26.009Z,98768.34
2022-10-24T20:29:32.518Z,98769.89
2022-10-24T20:32:37.933Z,98771.27
2022-10-24T20:35:44.457Z,98773.65
2022-10-24T20:38:49.916Z,98771.36
2022-10-24T20:41:55.532Z,98763.73
2022-10-24T20:45:00.990Z,98757.83
2022-10-24T20:48:06.920Z,98762.52
2022-10-24T20:51:14.543Z,98767.98
2022-10-24T20:54:20.952Z,98768.20
2022-10-24T20:57:26.459Z,98771.85
2022-10-24T21:00:31.984Z,98771.41
2022-10-24T21:03:38.193Z,98769.61
2022-10-24T21:06:42.084Z,98768.48
2022-10-24T21:09:47.530Z,98765.43
2022-10-24T21:12:53.824Z,98770.64
2022-10-24T21:15:59.569Z,98777.93
2022-10-24T21:19:06.316Z,98782.34
2022-10-24T21:22:11.776Z,98782.10
2022-10-24T21:25:17.553Z,98779.79
2022-10-24T21:28:22.959Z,98780.23
2022-10-24T21:31:28.528Z,98782.63
2022-10-24T21:34:34.848Z,98787.34
2022-10-24T21:37:40.678Z,98793.67
2022-10-24T21:40:46.121Z,98798.02
2022-10-24T21:43:52.146Z,98798.00
2022-10-24T21:46:57.709Z,98795.10
2022-10-24T21:50:03.155Z,98794.36
2022-10-24T21:53:08.705Z,98795.67
2022-10-24T21:56:15.812Z,98792.95
2022-10-24T21:59:22.618Z,98799.80
2022-10-24T22:02:28.171Z,98800.61
2022-10-24T22:05:33.724Z,98803.13
2022-10-24T22:08:39.144Z,98805.83
2022-10-24T22:11:44.865Z,98809.27
2022-10-24T22:14:50.317Z,98814.56
2022-10-24T22:17:55.658Z,98816.85
2022-10-24T22:21:02.371Z,98820.66
2022-10-24T22:24:10.377Z,98820.00
2022-10-24T22:27:15.997Z,98807.55
2022-10-24T22:30:21.470Z,98808.10
2022-10-24T22:33:34.164Z,98807.36
2022-10-24T22:37:09.024Z,98816.02
2022-10-24T22:40:25.003Z,98821.77
2022-10-24T22:43:31.715Z,98823.09
2022-10-24T22:46:52.070Z,98822.79
2022-10-24T22:50:04.504Z,98825.25
2022-10-24T22:53:15.306Z,98828.86
2022-10-24T22:56:27.155Z,98828.63
2022-10-24T22:59:34.314Z,98838.48
2022-10-24T23:02:46.120Z,98835.83
2022-10-24T23:05:59.973Z,98834.25
2022-10-24T23:09:05.625Z,98840.81
2022-10-24T23:12:17.161Z,98836.33
2022-10-24T23:15:24.881Z,98834.85
2022-10-24T23:18:31.637Z,98836.50
2022-10-24T23:21:44.616Z,98831.65
2022-10-24T23:24:51.553Z,98825.18
2022-10-24T23:28:03.942Z,98826.31
2022-10-24T23:31:10.769Z,98826.47
2022-10-24T23:34:17.662Z,98828.48
2022-10-24T23:37:32.711Z,98826.18
2022-10-24T23:40:41.732Z,98827.72
2022-10-24T23:43:48.558Z,98831.91
2022-10-24T23:47:00.609Z,98834.10
2022-10-24T23:50:11.733Z,98836.02
2022-10-24T23:53:41.460Z,98833.13
2022-10-24T23:56:48.449Z,98829.76
2022-10-24T23:59:53.982Z,98828.11
